sensor_id;sensor_type;location;lat;lon;timestamp;temperature;humidity
68128;SHT30;54931;52.098;21.006;2023-06-19T00:01:18;13.06;83.23
68128;SHT30;54931;52.098;21.006;2023-06-19T00:03:47;13.02;83.22
68128;SHT30;54931;52.098;21.006;2023-06-19T00:06:16;12.98;83.38
68128;SHT30;54931;52.098;21.006;2023-06-19T00:08:43;12.95;83.40
68128;SHT30;54931;52.098;21.006;2023-06-19T00:11:11;12.91;83.46
68128;SHT30;54931;52.098;21.006;2023-06-19T00:13:39;12.89;83.52
68128;SHT30;54931;52.098;21.006;2023-06-19T00:16:07;12.86;83.56
68128;SHT30;54931;52.098;21.006;2023-06-19T00:18:35;12.83;83.59
68128;SHT30;54931;52.098;21.006;2023-06-19T00:21:07;12.79;83.70
68128;SHT30;54931;52.098;21.006;2023-06-19T00:23:35;12.79;83.89
68128;SHT30;54931;52.098;21.006;2023-06-19T00:26:03;12.79;83.94
68128;SHT30;54931;52.098;21.006;2023-06-19T00:28:32;12.79;83.98
68128;SHT30;54931;52.098;21.006;2023-06-19T00:30:59;12.78;84.09
68128;SHT30;54931;52.098;21.006;2023-06-19T00:33:27;12.78;84.16
68128;SHT30;54931;52.098;21.006;2023-06-19T00:35:59;12.77;84.13
68128;SHT30;54931;52.098;21.006;2023-06-19T00:38:28;12.77;84.20
68128;SHT30;54931;52.098;21.006;2023-06-19T00:40:56;12.76;84.18
68128;SHT30;54931;52.098;21.006;2023-06-19T00:43:24;12.72;84.13
68128;SHT30;54931;52.098;21.006;2023-06-19T00:45:52;12.70;84.10
68128;SHT30;54931;52.098;21.006;2023-06-19T00:48:30;12.66;84.13
68128;SHT30;54931;52.098;21.006;2023-06-19T00:51:01;12.64;84.25
68128;SHT30;54931;52.098;21.006;2023-06-19T00:53:30;12.63;84.23
68128;SHT30;54931;52.098;21.006;2023-06-19T00:56:01;12.61;84.32
68128;SHT30;54931;52.098;21.006;2023-06-19T00:58:30;12.58;84.36
68128;SHT30;54931;52.098;21.006;2023-06-19T01:00:58;12.58;84.37
68128;SHT30;54931;52.098;21.006;2023-06-19T01:03:26;12.55;84.38
68128;SHT30;54931;52.098;21.006;2023-06-19T01:05:54;12.54;84.39
68128;SHT30;54931;52.098;21.006;2023-06-19T01:08:43;12.54;84.40
68128;SHT30;54931;52.098;21.006;2023-06-19T01:11:24;12.51;84.40
68128;SHT30;54931;52.098;21.006;2023-06-19T01:14:03;12.48;84.35
68128;SHT30;54931;52.098;21.006;2023-06-19T01:17:28;12.43;84.29
68128;SHT30;54931;52.098;21.006;2023-06-19T01:19:57;12.39;84.27
68128;SHT30;54931;52.098;21.006;2023-06-19T01:22:29;12.35;84.35
68128;SHT30;54931;52.098;21.006;2023-06-19T01:24:58;12.33;84.40
68128;SHT30;54931;52.098;21.006;2023-06-19T01:27:26;12.31;84.42
68128;SHT30;54931;52.098;21.006;2023-06-19T01:29:58;12.29;84.50
68128;SHT30;54931;52.098;21.006;2023-06-19T01:35:32;12.23;84.55
68128;SHT30;54931;52.098;21.006;2023-06-19T01:38:03;12.20;84.60
68128;SHT30;54931;52.098;21.006;2023-06-19T01:40:33;12.19;84.69
68128;SHT30;54931;52.098;21.006;2023-06-19T01:43:03;12.18;84.80
68128;SHT30;54931;52.098;21.006;2023-06-19T01:45:32;12.15;84.79
68128;SHT30;54931;52.098;21.006;2023-06-19T01:48:01;12.15;84.80
68128;SHT30;54931;52.098;21.006;2023-06-19T01:50:29;12.13;84.80
68128;SHT30;54931;52.098;21.006;2023-06-19T01:52:57;12.13;84.91
68128;SHT30;54931;52.098;21.006;2023-06-19T01:55:25;12.14;85.00
68128;SHT30;54931;52.098;21.006;2023-06-19T01:57:53;12.14;84.99
68128;SHT30;54931;52.098;21.006;2023-06-19T02:00:21;12.13;84.98
68128;SHT30;54931;52.098;21.006;2023-06-19T02:02:49;12.11;84.92
68128;SHT30;54931;52.098;21.006;2023-06-19T02:05:17;12.10;85.05
68128;SHT30;54931;52.098;21.006;2023-06-19T02:07:45;12.10;85.09
68128;SHT30;54931;52.098;21.006;2023-06-19T02:10:13;12.10;85.17
68128;SHT30;54931;52.098;21.006;2023-06-19T02:12:41;12.10;85.12
68128;SHT30;54931;52.098;21.006;2023-06-19T02:15:09;12.08;85.09
68128;SHT30;54931;52.098;21.006;2023-06-19T02:17:37;12.07;85.05
68128;SHT30;54931;52.098;21.006;2023-06-19T02:20:05;12.06;85.09
68128;SHT30;54931;52.098;21.006;2023-06-19T02:22:37;12.05;85.09
68128;SHT30;54931;52.098;21.006;2023-06-19T02:25:06;12.04;85.03
68128;SHT30;54931;52.098;21.006;2023-06-19T02:27:35;12.01;85.00
68128;SHT30;54931;52.098;21.006;2023-06-19T02:30:04;12.01;85.02
68128;SHT30;54931;52.098;21.006;2023-06-19T02:32:35;11.99;85.00
68128;SHT30;54931;52.098;21.006;2023-06-19T02:35:05;12.00;84.99
68128;SHT30;54931;52.098;21.006;2023-06-19T02:37:37;12.00;84.96
68128;SHT30;54931;52.098;21.006;2023-06-19T02:40:05;12.00;84.96
68128;SHT30;54931;52.098;21.006;2023-06-19T02:42:36;11.99;85.02
68128;SHT30;54931;52.098;21.006;2023-06-19T02:45:04;11.99;85.09
68128;SHT30;54931;52.098;21.006;2023-06-19T02:47:33;11.99;85.09
68128;SHT30;54931;52.098;21.006;2023-06-19T02:50:01;11.98;85.11
68128;SHT30;54931;52.098;21.006;2023-06-19T02:52:31;11.99;85.21
68128;SHT30;54931;52.098;21.006;2023-06-19T02:54:59;12.00;85.21
68128;SHT30;54931;52.098;21.006;2023-06-19T02:57:27;11.99;85.17
68128;SHT30;54931;52.098;21.006;2023-06-19T02:59:55;11.98;85.12
68128;SHT30;54931;52.098;21.006;2023-06-19T03:02:22;11.98;85.03
68128;SHT30;54931;52.098;21.006;2023-06-19T03:04:51;11.97;85.22
68128;SHT30;54931;52.098;21.006;2023-06-19T03:07:19;11.98;85.31
68128;SHT30;54931;52.098;21.006;2023-06-19T03:09:47;12.01;85.36
68128;SHT30;54931;52.098;21.006;2023-06-19T03:12:15;12.04;85.40
68128;SHT30;54931;52.098;21.006;2023-06-19T03:14:43;12.09;85.52
68128;SHT30;54931;52.098;21.006;2023-06-19T03:17:12;12.14;85.50
68128;SHT30;54931;52.098;21.006;2023-06-19T03:19:40;12.18;85.54
68128;SHT30;54931;52.098;21.006;2023-06-19T03:22:08;12.24;85.60
68128;SHT30;54931;52.098;21.006;2023-06-19T03:24:35;12.32;85.69
68128;SHT30;54931;52.098;21.006;2023-06-19T03:27:04;12.48;85.94
68128;SHT30;54931;52.098;21.006;2023-06-19T03:29:32;12.67;85.99
68128;SHT30;54931;52.098;21.006;2023-06-19T03:32:00;12.88;85.72
68128;SHT30;54931;52.098;21.006;2023-06-19T03:34:28;13.12;85.64
68128;SHT30;54931;52.098;21.006;2023-06-19T03:36:56;13.37;85.34
68128;SHT30;54931;52.098;21.006;2023-06-19T03:39:25;13.61;85.11
68128;SHT30;54931;52.098;21.006;2023-06-19T03:41:53;13.82;84.61
68128;SHT30;54931;52.098;21.006;2023-06-19T03:44:21;14.09;84.64
68128;SHT30;54931;52.098;21.006;2023-06-19T03:46:50;14.40;84.57
68128;SHT30;54931;52.098;21.006;2023-06-19T03:49:19;14.69;84.19
68128;SHT30;54931;52.098;21.006;2023-06-19T03:51:50;15.01;83.75
68128;SHT30;54931;52.098;21.006;2023-06-19T03:54:18;15.30;83.16
68128;SHT30;54931;52.098;21.006;2023-06-19T03:56:46;15.59;82.49
68128;SHT30;54931;52.098;21.006;2023-06-19T03:59:14;15.83;81.70
68128;SHT30;54931;52.098;21.006;2023-06-19T04:01:42;16.07;81.28
68128;SHT30;54931;52.098;21.006;2023-06-19T04:04:10;16.31;80.97
68128;SHT30;54931;52.098;21.006;2023-06-19T04:06:38;16.55;80.68
68128;SHT30;54931;52.098;21.006;2023-06-19T04:09:06;16.78;80.05
68128;SHT30;54931;52.098;21.006;2023-06-19T04:11:33;17.02;79.41
68128;SHT30;54931;52.098;21.006;2023-06-19T04:14:01;17.30;79.01
68128;SHT30;54931;52.098;21.006;2023-06-19T04:16:29;17.63;78.55
68128;SHT30;54931;52.098;21.006;2023-06-19T04:18:57;17.89;77.45
68128;SHT30;54931;52.098;21.006;2023-06-19T04:21:25;18.06;76.24
68128;SHT30;54931;52.098;21.006;2023-06-19T04:23:53;18.18;75.47
68128;SHT30;54931;52.098;21.006;2023-06-19T04:26:21;18.36;74.89
68128;SHT30;54931;52.098;21.006;2023-06-19T04:28:49;18.53;74.16
68128;SHT30;54931;52.098;21.006;2023-06-19T04:31:17;18.67;73.40
68128;SHT30;54931;52.098;21.006;2023-06-19T04:33:46;18.80;72.51
68128;SHT30;54931;52.098;21.006;2023-06-19T04:36:14;18.88;71.95
68128;SHT30;54931;52.098;21.006;2023-06-19T04:38:42;18.94;71.39
68128;SHT30;54931;52.098;21.006;2023-06-19T04:41:12;19.02;71.12
68128;SHT30;54931;52.098;21.006;2023-06-19T04:43:40;19.11;70.71
68128;SHT30;54931;52.098;21.006;2023-06-19T04:46:08;19.25;70.63
68128;SHT30;54931;52.098;21.006;2023-06-19T04:48:36;19.43;70.26
68128;SHT30;54931;52.098;21.006;2023-06-19T04:51:04;19.64;69.81
68128;SHT30;54931;52.098;21.006;2023-06-19T04:53:32;19.92;69.74
68128;SHT30;54931;52.098;21.006;2023-06-19T04:56:00;20.27;68.78
68128;SHT30;54931;52.098;21.006;2023-06-19T04:58:28;20.58;68.01
68128;SHT30;54931;52.098;21.006;2023-06-19T05:00:56;20.83;67.52
68128;SHT30;54931;52.098;21.006;2023-06-19T05:03:24;21.04;66.33
68128;SHT30;54931;52.098;21.006;2023-06-19T05:05:52;21.24;66.10
68128;SHT30;54931;52.098;21.006;2023-06-19T05:08:20;21.53;65.58
68128;SHT30;54931;52.098;21.006;2023-06-19T05:10:48;21.74;64.62
68128;SHT30;54931;52.098;21.006;2023-06-19T05:13:16;21.89;64.24
68128;SHT30;54931;52.098;21.006;2023-06-19T05:15:45;22.19;64.13
68128;SHT30;54931;52.098;21.006;2023-06-19T05:18:13;22.48;63.48
68128;SHT30;54931;52.098;21.006;2023-06-19T05:20:41;22.78;62.62
68128;SHT30;54931;52.098;21.006;2023-06-19T05:23:09;23.04;61.92
68128;SHT30;54931;52.098;21.006;2023-06-19T05:25:37;23.20;60.79
68128;SHT30;54931;52.098;21.006;2023-06-19T05:28:05;23.26;59.75
68128;SHT30;54931;52.098;21.006;2023-06-19T05:30:34;23.48;59.58
68128;SHT30;54931;52.098;21.006;2023-06-19T05:33:02;23.67;58.14
68128;SHT30;54931;52.098;21.006;2023-06-19T05:35:30;23.79;58.09
68128;SHT30;54931;52.098;21.006;2023-06-19T05:37:59;23.89;57.68
68128;SHT30;54931;52.098;21.006;2023-06-19T05:40:27;23.98;57.05
68128;SHT30;54931;52.098;21.006;2023-06-19T05:42:55;24.16;57.04
68128;SHT30;54931;52.098;21.006;2023-06-19T05:45:23;24.22;55.75
68128;SHT30;54931;52.098;21.006;2023-06-19T05:47:51;24.33;55.76
68128;SHT30;54931;52.098;21.006;2023-06-19T05:50:19;24.39;55.22
68128;SHT30;54931;52.098;21.006;2023-06-19T05:52:47;24.42;55.77
68128;SHT30;54931;52.098;21.006;2023-06-19T05:55:15;24.52;57.51
68128;SHT30;54931;52.098;21.006;2023-06-19T05:57:43;24.74;58.17
68128;SHT30;54931;52.098;21.006;2023-06-19T06:00:11;24.98;57.62
68128;SHT30;54931;52.098;21.006;2023-06-19T06:02:43;25.19;57.19
68128;SHT30;54931;52.098;21.006;2023-06-19T06:05:11;25.23;56.47
68128;SHT30;54931;52.098;21.006;2023-06-19T06:07:39;25.17;56.51
68128;SHT30;54931;52.098;21.006;2023-06-19T06:10:07;25.25;56.68
68128;SHT30;54931;52.098;21.006;2023-06-19T06:12:36;25.48;56.39
68128;SHT30;54931;52.098;21.006;2023-06-19T06:15:05;25.60;55.44
68128;SHT30;54931;52.098;21.006;2023-06-19T06:17:34;25.72;55.20
68128;SHT30;54931;52.098;21.006;2023-06-19T06:20:02;25.89;55.46
68128;SHT30;54931;52.098;21.006;2023-06-19T06:22:40;26.07;54.90
68128;SHT30;54931;52.098;21.006;2023-06-19T06:25:10;26.17;53.56
68128;SHT30;54931;52.098;21.006;2023-06-19T06:27:37;26.29;53.23
68128;SHT30;54931;52.098;21.006;2023-06-19T06:30:05;26.33;53.45
68128;SHT30;54931;52.098;21.006;2023-06-19T06:32:34;26.43;53.79
68128;SHT30;54931;52.098;21.006;2023-06-19T06:35:02;26.42;53.08
68128;SHT30;54931;52.098;21.006;2023-06-19T06:37:31;26.33;52.73
68128;SHT30;54931;52.098;21.006;2023-06-19T06:39:59;26.27;52.58
68128;SHT30;54931;52.098;21.006;2023-06-19T06:42:27;26.23;51.99
68128;SHT30;54931;52.098;21.006;2023-06-19T06:44:55;26.26;52.24
68128;SHT30;54931;52.098;21.006;2023-06-19T06:47:23;26.31;51.65
68128;SHT30;54931;52.098;21.006;2023-06-19T06:49:50;26.47;52.26
68128;SHT30;54931;52.098;21.006;2023-06-19T06:52:19;26.72;52.54
68128;SHT30;54931;52.098;21.006;2023-06-19T06:54:47;27.05;51.98
68128;SHT30;54931;52.098;21.006;2023-06-19T06:57:14;27.26;51.31
68128;SHT30;54931;52.098;21.006;2023-06-19T06:59:42;27.37;50.88
68128;SHT30;54931;52.098;21.006;2023-06-19T07:02:10;27.52;50.39
68128;SHT30;54931;52.098;21.006;2023-06-19T07:04:38;27.48;48.92
68128;SHT30;54931;52.098;21.006;2023-06-19T07:07:06;27.46;49.88
68128;SHT30;54931;52.098;21.006;2023-06-19T07:09:36;27.55;50.10
68128;SHT30;54931;52.098;21.006;2023-06-19T07:12:03;27.53;49.34
68128;SHT30;54931;52.098;21.006;2023-06-19T07:14:34;27.38;50.00
68128;SHT30;54931;52.098;21.006;2023-06-19T07:17:02;27.43;50.09
68128;SHT30;54931;52.098;21.006;2023-06-19T07:19:30;27.63;50.47
68128;SHT30;54931;52.098;21.006;2023-06-19T07:21:57;27.88;49.60
68128;SHT30;54931;52.098;21.006;2023-06-19T07:24:26;28.00;48.88
68128;SHT30;54931;52.098;21.006;2023-06-19T07:26:54;28.02;48.90
68128;SHT30;54931;52.098;21.006;2023-06-19T07:29:23;28.09;48.23
68128;SHT30;54931;52.098;21.006;2023-06-19T07:31:52;28.09;47.48
68128;SHT30;54931;52.098;21.006;2023-06-19T07:34:20;27.94;46.71
68128;SHT30;54931;52.098;21.006;2023-06-19T07:36:49;27.94;47.88
68128;SHT30;54931;52.098;21.006;2023-06-19T07:39:17;27.94;45.96
68128;SHT30;54931;52.098;21.006;2023-06-19T07:41:46;27.58;46.27
68128;SHT30;54931;52.098;21.006;2023-06-19T07:44:14;27.44;47.35
68128;SHT30;54931;52.098;21.006;2023-06-19T07:46:44;27.33;47.45
68128;SHT30;54931;52.098;21.006;2023-06-19T07:49:12;27.24;48.12
68128;SHT30;54931;52.098;21.006;2023-06-19T07:51:40;27.27;49.15
68128;SHT30;54931;52.098;21.006;2023-06-19T07:54:08;27.39;48.50
68128;SHT30;54931;52.098;21.006;2023-06-19T07:56:36;27.58;48.49
68128;SHT30;54931;52.098;21.006;2023-06-19T07:59:04;27.75;47.69
68128;SHT30;54931;52.098;21.006;2023-06-19T08:01:32;27.72;46.62
68128;SHT30;54931;52.098;21.006;2023-06-19T08:04:00;27.66;46.60
68128;SHT30;54931;52.098;21.006;2023-06-19T08:06:28;27.71;46.78
68128;SHT30;54931;52.098;21.006;2023-06-19T08:08:56;27.73;46.78
68128;SHT30;54931;52.098;21.006;2023-06-19T08:11:23;27.72;45.94
68128;SHT30;54931;52.098;21.006;2023-06-19T08:13:51;27.66;44.79
68128;SHT30;54931;52.098;21.006;2023-06-19T08:16:19;27.69;44.85
68128;SHT30;54931;52.098;21.006;2023-06-19T08:18:47;27.79;44.43
68128;SHT30;54931;52.098;21.006;2023-06-19T08:21:15;27.80;44.67
68128;SHT30;54931;52.098;21.006;2023-06-19T08:23:43;27.85;44.66
68128;SHT30;54931;52.098;21.006;2023-06-19T08:26:11;28.06;45.15
68128;SHT30;54931;52.098;21.006;2023-06-19T08:28:39;28.19;44.40
68128;SHT30;54931;52.098;21.006;2023-06-19T08:31:08;28.19;44.06
68128;SHT30;54931;52.098;21.006;2023-06-19T08:33:36;28.07;43.91
68128;SHT30;54931;52.098;21.006;2023-06-19T08:36:04;28.13;43.67
68128;SHT30;54931;52.098;21.006;2023-06-19T08:38:32;28.27;43.41
68128;SHT30;54931;52.098;21.006;2023-06-19T08:41:00;28.32;42.14
68128;SHT30;54931;52.098;21.006;2023-06-19T08:43:29;28.21;43.49
68128;SHT30;54931;52.098;21.006;2023-06-19T08:46:15;28.34;43.55
68128;SHT30;54931;52.098;21.006;2023-06-19T08:48:45;28.65;44.54
68128;SHT30;54931;52.098;21.006;2023-06-19T08:51:14;28.98;43.75
68128;SHT30;54931;52.098;21.006;2023-06-19T08:53:47;29.05;43.12
68128;SHT30;54931;52.098;21.006;2023-06-19T08:56:24;29.16;43.24
68128;SHT30;54931;52.098;21.006;2023-06-19T08:58:52;29.29;43.81
68128;SHT30;54931;52.098;21.006;2023-06-19T09:01:20;29.37;43.16
68128;SHT30;54931;52.098;21.006;2023-06-19T09:03:48;29.47;43.46
68128;SHT30;54931;52.098;21.006;2023-06-19T09:06:19;29.52;42.84
68128;SHT30;54931;52.098;21.006;2023-06-19T09:08:57;29.52;42.62
68128;SHT30;54931;52.098;21.006;2023-06-19T09:11:27;29.52;41.33
68128;SHT30;54931;52.098;21.006;2023-06-19T09:13:56;29.41;42.68
68128;SHT30;54931;52.098;21.006;2023-06-19T09:16:35;29.45;42.59
68128;SHT30;54931;52.098;21.006;2023-06-19T09:19:08;29.58;42.46
68128;SHT30;54931;52.098;21.006;2023-06-19T09:21:36;29.75;42.76
68128;SHT30;54931;52.098;21.006;2023-06-19T09:24:08;29.77;42.65
68128;SHT30;54931;52.098;21.006;2023-06-19T09:26:36;29.79;41.77
68128;SHT30;54931;52.098;21.006;2023-06-19T09:29:13;29.82;40.88
68128;SHT30;54931;52.098;21.006;2023-06-19T09:31:46;29.69;40.31
68128;SHT30;54931;52.098;21.006;2023-06-19T09:34:13;29.63;41.18
68128;SHT30;54931;52.098;21.006;2023-06-19T09:36:41;29.80;42.37
68128;SHT30;54931;52.098;21.006;2023-06-19T09:39:12;29.97;40.07
68128;SHT30;54931;52.098;21.006;2023-06-19T09:41:42;29.71;40.81
68128;SHT30;54931;52.098;21.006;2023-06-19T09:44:16;29.81;41.66
68128;SHT30;54931;52.098;21.006;2023-06-19T09:46:49;29.95;40.85
68128;SHT30;54931;52.098;21.006;2023-06-19T09:49:22;29.98;41.72
68128;SHT30;54931;52.098;21.006;2023-06-19T09:51:59;29.78;39.55
68128;SHT30;54931;52.098;21.006;2023-06-19T09:54:29;29.32;40.81
68128;SHT30;54931;52.098;21.006;2023-06-19T09:56:58;29.43;41.02
68128;SHT30;54931;52.098;21.006;2023-06-19T09:59:30;29.56;41.09
68128;SHT30;54931;52.098;21.006;2023-06-19T10:01:58;29.61;41.27
68128;SHT30;54931;52.098;21.006;2023-06-19T10:04:27;29.83;41.21
68128;SHT30;54931;52.098;21.006;2023-06-19T10:06:56;30.05;41.01
68128;SHT30;54931;52.098;21.006;2023-06-19T10:09:24;30.30;40.77
68128;SHT30;54931;52.098;21.006;2023-06-19T10:12:00;30.43;40.68
68128;SHT30;54931;52.098;21.006;2023-06-19T10:14:48;30.42;39.57
68128;SHT30;54931;52.098;21.006;2023-06-19T10:17:17;29.85;38.49
68128;SHT30;54931;52.098;21.006;2023-06-19T10:19:51;29.25;39.44
68128;SHT30;54931;52.098;21.006;2023-06-19T10:22:20;28.65;40.06
68128;SHT30;54931;52.098;21.006;2023-06-19T10:24:51;28.16;40.78
68128;SHT30;54931;52.098;21.006;2023-06-19T10:27:21;27.77;42.04
68128;SHT30;54931;52.098;21.006;2023-06-19T10:29:52;27.83;42.47
68128;SHT30;54931;52.098;21.006;2023-06-19T10:32:22;28.13;43.81
68128;SHT30;54931;52.098;21.006;2023-06-19T10:34:49;28.54;43.69
68128;SHT30;54931;52.098;21.006;2023-06-19T10:37:17;28.86;42.85
68128;SHT30;54931;52.098;21.006;2023-06-19T10:39:45;29.01;41.92
68128;SHT30;54931;52.098;21.006;2023-06-19T10:42:13;29.23;42.33
68128;SHT30;54931;52.098;21.006;2023-06-19T10:44:40;29.41;41.73
68128;SHT30;54931;52.098;21.006;2023-06-19T10:47:09;29.57;41.12
68128;SHT30;54931;52.098;21.006;2023-06-19T10:49:37;29.57;39.75
68128;SHT30;54931;52.098;21.006;2023-06-19T10:52:06;29.54;40.63
68128;SHT30;54931;52.098;21.006;2023-06-19T10:54:34;29.63;40.56
68128;SHT30;54931;52.098;21.006;2023-06-19T10:57:06;29.60;38.95
68128;SHT30;54931;52.098;21.006;2023-06-19T10:59:34;29.56;39.19
68128;SHT30;54931;52.098;21.006;2023-06-19T11:02:02;29.61;38.56
68128;SHT30;54931;52.098;21.006;2023-06-19T11:04:32;29.73;38.80
68128;SHT30;54931;52.098;21.006;2023-06-19T11:07:06;29.71;38.01
68128;SHT30;54931;52.098;21.006;2023-06-19T11:09:35;29.58;38.48
68128;SHT30;54931;52.098;21.006;2023-06-19T11:12:03;29.54;39.01
68128;SHT30;54931;52.098;21.006;2023-06-19T11:14:35;29.44;38.74
68128;SHT30;54931;52.098;21.006;2023-06-19T11:17:06;29.35;40.11
68128;SHT30;54931;52.098;21.006;2023-06-19T11:19:34;29.35;39.94
68128;SHT30;54931;52.098;21.006;2023-06-19T11:22:05;29.14;39.18
68128;SHT30;54931;52.098;21.006;2023-06-19T11:24:35;28.95;38.72
68128;SHT30;54931;52.098;21.006;2023-06-19T11:27:03;28.51;38.60
68128;SHT30;54931;52.098;21.006;2023-06-19T11:29:33;28.44;39.56
68128;SHT30;54931;52.098;21.006;2023-06-19T11:32:04;28.41;38.38
68128;SHT30;54931;52.098;21.006;2023-06-19T11:34:39;28.21;38.75
68128;SHT30;54931;52.098;21.006;2023-06-19T11:37:14;28.05;38.71
68128;SHT30;54931;52.098;21.006;2023-06-19T11:39:45;27.91;38.37
68128;SHT30;54931;52.098;21.006;2023-06-19T11:42:15;27.98;39.28
68128;SHT30;54931;52.098;21.006;2023-06-19T11:44:54;28.12;39.54
68128;SHT30;54931;52.098;21.006;2023-06-19T11:47:23;28.24;39.71
68128;SHT30;54931;52.098;21.006;2023-06-19T11:49:51;28.38;40.22
68128;SHT30;54931;52.098;21.006;2023-06-19T11:52:19;28.59;39.96
68128;SHT30;54931;52.098;21.006;2023-06-19T11:54:47;28.74;39.75
68128;SHT30;54931;52.098;21.006;2023-06-19T11:57:15;28.86;39.76
68128;SHT30;54931;52.098;21.006;2023-06-19T11:59:43;28.96;39.98
68128;SHT30;54931;52.098;21.006;2023-06-19T12:02:12;28.91;38.56
68128;SHT30;54931;52.098;21.006;2023-06-19T12:04:41;28.91;40.13
68128;SHT30;54931;52.098;21.006;2023-06-19T12:07:08;28.72;38.87
68128;SHT30;54931;52.098;21.006;2023-06-19T12:09:36;28.57;39.65
68128;SHT30;54931;52.098;21.006;2023-06-19T12:12:06;28.48;39.06
68128;SHT30;54931;52.098;21.006;2023-06-19T12:14:35;28.49;38.66
68128;SHT30;54931;52.098;21.006;2023-06-19T12:17:03;28.55;39.15
68128;SHT30;54931;52.098;21.006;2023-06-19T12:19:31;28.67;38.22
68128;SHT30;54931;52.098;21.006;2023-06-19T12:21:58;28.60;38.47
68128;SHT30;54931;52.098;21.006;2023-06-19T12:24:27;28.52;38.25
68128;SHT30;54931;52.098;21.006;2023-06-19T12:26:55;28.54;38.57
68128;SHT30;54931;52.098;21.006;2023-06-19T12:29:23;28.65;37.83
68128;SHT30;54931;52.098;21.006;2023-06-19T12:31:51;28.74;38.37
68128;SHT30;54931;52.098;21.006;2023-06-19T12:34:19;28.82;38.20
68128;SHT30;54931;52.098;21.006;2023-06-19T12:36:47;28.79;37.27
68128;SHT30;54931;52.098;21.006;2023-06-19T12:39:15;28.69;37.33
68128;SHT30;54931;52.098;21.006;2023-06-19T12:41:44;28.71;38.93
68128;SHT30;54931;52.098;21.006;2023-06-19T12:44:12;28.81;38.82
68128;SHT30;54931;52.098;21.006;2023-06-19T12:46:40;28.84;37.96
68128;SHT30;54931;52.098;21.006;2023-06-19T12:49:08;28.74;38.38
68128;SHT30;54931;52.098;21.006;2023-06-19T12:51:36;28.71;39.65
68128;SHT30;54931;52.098;21.006;2023-06-19T12:54:04;28.78;39.61
68128;SHT30;54931;52.098;21.006;2023-06-19T12:56:32;28.72;37.81
68128;SHT30;54931;52.098;21.006;2023-06-19T12:59:01;28.57;38.70
68128;SHT30;54931;52.098;21.006;2023-06-19T13:01:29;28.53;38.74
68128;SHT30;54931;52.098;21.006;2023-06-19T13:03:57;28.54;38.70
68128;SHT30;54931;52.098;21.006;2023-06-19T13:06:25;28.47;38.59
68128;SHT30;54931;52.098;21.006;2023-06-19T13:08:53;28.49;39.05
68128;SHT30;54931;52.098;21.006;2023-06-19T13:11:21;28.46;38.46
68128;SHT30;54931;52.098;21.006;2023-06-19T13:13:50;28.47;39.04
68128;SHT30;54931;52.098;21.006;2023-06-19T13:16:19;28.48;39.90
68128;SHT30;54931;52.098;21.006;2023-06-19T13:18:47;28.48;38.23
68128;SHT30;54931;52.098;21.006;2023-06-19T13:21:15;28.42;38.78
68128;SHT30;54931;52.098;21.006;2023-06-19T13:23:43;28.49;39.22
68128;SHT30;54931;52.098;21.006;2023-06-19T13:26:11;28.62;38.54
68128;SHT30;54931;52.098;21.006;2023-06-19T13:28:39;28.69;37.88
68128;SHT30;54931;52.098;21.006;2023-06-19T13:31:07;28.81;36.86
68128;SHT30;54931;52.098;21.006;2023-06-19T13:33:35;28.89;36.68
68128;SHT30;54931;52.098;21.006;2023-06-19T13:36:04;28.85;35.31
68128;SHT30;54931;52.098;21.006;2023-06-19T13:38:33;28.72;35.10
68128;SHT30;54931;52.098;21.006;2023-06-19T13:41:00;28.61;36.10
68128;SHT30;54931;52.098;21.006;2023-06-19T13:43:28;28.58;36.56
68128;SHT30;54931;52.098;21.006;2023-06-19T13:45:56;28.59;36.74
68128;SHT30;54931;52.098;21.006;2023-06-19T13:48:24;28.57;36.18
68128;SHT30;54931;52.098;21.006;2023-06-19T13:50:52;28.50;35.98
68128;SHT30;54931;52.098;21.006;2023-06-19T13:53:19;28.46;36.53
68128;SHT30;54931;52.098;21.006;2023-06-19T13:55:48;28.39;36.41
68128;SHT30;54931;52.098;21.006;2023-06-19T13:58:17;28.35;36.02
68128;SHT30;54931;52.098;21.006;2023-06-19T14:00:45;28.36;36.34
68128;SHT30;54931;52.098;21.006;2023-06-19T14:03:13;28.42;36.26
68128;SHT30;54931;52.098;21.006;2023-06-19T14:05:41;28.50;36.97
68128;SHT30;54931;52.098;21.006;2023-06-19T14:08:09;28.52;37.19
68128;SHT30;54931;52.098;21.006;2023-06-19T14:10:37;28.58;37.80
68128;SHT30;54931;52.098;21.006;2023-06-19T14:13:05;28.72;38.52
68128;SHT30;54931;52.098;21.006;2023-06-19T14:15:32;28.72;36.54
68128;SHT30;54931;52.098;21.006;2023-06-19T14:18:00;28.64;37.19
68128;SHT30;54931;52.098;21.006;2023-06-19T14:20:29;28.65;37.11
68128;SHT30;54931;52.098;21.006;2023-06-19T14:22:56;28.61;35.99
68128;SHT30;54931;52.098;21.006;2023-06-19T14:25:24;28.48;36.01
68128;SHT30;54931;52.098;21.006;2023-06-19T14:27:52;28.38;36.37
68128;SHT30;54931;52.098;21.006;2023-06-19T14:30:21;28.37;36.34
68128;SHT30;54931;52.098;21.006;2023-06-19T14:32:50;28.44;37.46
68128;SHT30;54931;52.098;21.006;2023-06-19T14:35:18;28.58;38.07
68128;SHT30;54931;52.098;21.006;2023-06-19T14:37:46;28.68;36.67
68128;SHT30;54931;52.098;21.006;2023-06-19T14:40:14;28.64;37.94
68128;SHT30;54931;52.098;21.006;2023-06-19T14:42:42;28.70;37.95
68128;SHT30;54931;52.098;21.006;2023-06-19T14:45:10;28.84;37.41
68128;SHT30;54931;52.098;21.006;2023-06-19T14:47:38;28.96;37.85
68128;SHT30;54931;52.098;21.006;2023-06-19T14:50:06;28.82;37.24
68128;SHT30;54931;52.098;21.006;2023-06-19T14:52:35;28.54;36.60
68128;SHT30;54931;52.098;21.006;2023-06-19T14:55:05;28.25;37.29
68128;SHT30;54931;52.098;21.006;2023-06-19T14:57:36;28.08;38.81
68128;SHT30;54931;52.098;21.006;2023-06-19T15:00:04;28.24;38.86
68128;SHT30;54931;52.098;21.006;2023-06-19T15:02:35;28.50;38.12
68128;SHT30;54931;52.098;21.006;2023-06-19T15:05:03;28.72;38.04
68128;SHT30;54931;52.098;21.006;2023-06-19T15:07:32;28.87;37.82
68128;SHT30;54931;52.098;21.006;2023-06-19T15:09:59;28.84;38.35
68128;SHT30;54931;52.098;21.006;2023-06-19T15:12:27;28.69;38.83
68128;SHT30;54931;52.098;21.006;2023-06-19T15:14:56;28.46;38.83
68128;SHT30;54931;52.098;21.006;2023-06-19T15:17:24;28.20;37.85
68128;SHT30;54931;52.098;21.006;2023-06-19T15:19:51;28.03;38.67
68128;SHT30;54931;52.098;21.006;2023-06-19T15:22:19;27.93;39.25
68128;SHT30;54931;52.098;21.006;2023-06-19T15:24:47;27.96;38.81
68128;SHT30;54931;52.098;21.006;2023-06-19T15:27:15;27.92;38.48
68128;SHT30;54931;52.098;21.006;2023-06-19T15:29:43;27.90;38.82